Bluff Estates, South Carolina
Current Conditions -  °F | °C
As of 1:53 PM on Friday 24 Oct 2014 (Local Time) from KCUB Reporting Station
Clear Clear  
Wind Chill: 21°   Ceiling: Unl
Heat Index: 21°   Visibility: 10mi
Dew Point:   Wind: 3mph
Humidity: 39%   Direction: NA
Pressure: 30.03"   Gusts: NA
Location:  33.9488°N, 80.9462°W
Report Text: KCUB 241753Z AUTO VRB03KT 10SM CLR 21/06 A3003 RMK AO2 SLP169 T02060061 10206 20083 58025
Loading
Personal Weather Stations






























Interactive Weather Map
Tropical Storm Tracking
New forecast layout! Learn more

10-Day Weather Forecast

Advertisements
Track Severe Weather on mobile